RYR0599 GCTS-LEMG
Flight info
| Callsign | RYR0599 |
|---|---|
| Flight time | 2h 13m |
| Altitude | 38000 |
| Route | KORAL UN871 SONSO DCT NIRAL UN871 ADUBI N871 VJF |
| Aircraft | B38M/M-SDE1FGHILORVWXY/HB1 |
Departure
| Time | 2026-04-30 11:02 |
|---|---|
| Airport | Tenerife Sur Airport (GCTS) |
Arrival
| Time | 2026-04-30 13:16 |
|---|---|
| Airport | Málaga-Costa del Sol Airport (LEMG) |
| Time | Latitude | Longitude | Altitude | Speed | Heading |
|---|---|---|---|---|---|
| 2026-04-30 10:41 | 28.04577 | -16.58067 | 228 ft | 0 kts | 338° |
| 2026-04-30 10:52 | 28.04557 | -16.58058 | 230 ft | 4 kts | 336° |
| 2026-04-30 10:52 | 28.04534 | -16.58046 | 231 ft | 4 kts | 332° |
| 2026-04-30 10:53 | 28.04516 | -16.58033 | 229 ft | 2 kts | 311° |
| 2026-04-30 10:53 | 28.04509 | -16.58019 | 230 ft | 2 kts | 259° |
| 2026-04-30 10:53 | 28.04511 | -16.58006 | 230 ft | 2 kts | 247° |
| 2026-04-30 10:53 | 28.04514 | -16.57998 | 229 ft | 0 kts | 251° |
| 2026-04-30 10:57 | 28.04508 | -16.58016 | 230 ft | 4 kts | 249° |
| 2026-04-30 10:57 | 28.04495 | -16.58055 | 228 ft | 7 kts | 250° |
| 2026-04-30 10:57 | 28.04476 | -16.58113 | 229 ft | 9 kts | 248° |
| 2026-04-30 10:57 | 28.04453 | -16.58177 | 227 ft | 8 kts | 244° |
| 2026-04-30 10:58 | 28.04397 | -16.58208 | 226 ft | 11 kts | 163° |
| 2026-04-30 10:58 | 28.04324 | -16.58193 | 225 ft | 11 kts | 197° |
| 2026-04-30 10:58 | 28.04279 | -16.58265 | 225 ft | 13 kts | 249° |
| 2026-04-30 10:58 | 28.04251 | -16.58350 | 225 ft | 12 kts | 249° |
| 2026-04-30 10:59 | 28.04220 | -16.58438 | 225 ft | 13 kts | 249° |
| 2026-04-30 10:59 | 28.04191 | -16.58527 | 225 ft | 12 kts | 251° |
| 2026-04-30 10:59 | 28.04160 | -16.58626 | 224 ft | 16 kts | 249° |
| 2026-04-30 10:59 | 28.04120 | -16.58743 | 215 ft | 14 kts | 246° |
| 2026-04-30 11:00 | 28.04060 | -16.58791 | 212 ft | 7 kts | 168° |
| 2026-04-30 11:00 | 28.04017 | -16.58757 | 208 ft | 0 kts | 118° |
| 2026-04-30 11:00 | 28.04003 | -16.58720 | 213 ft | 9 kts | 112° |
| 2026-04-30 11:00 | 28.03982 | -16.58659 | 206 ft | 6 kts | 111° |
| 2026-04-30 11:01 | 28.03976 | -16.58606 | 208 ft | 8 kts | 73° |
| 2026-04-30 11:01 | 28.03979 | -16.58598 | 198 ft | 0 kts | 69° |
| 2026-04-30 11:01 | 28.03992 | -16.58560 | 209 ft | 23 kts | 69° |
| 2026-04-30 11:01 | 28.04151 | -16.58102 | 200 ft | 101 kts | 68° |
| 2026-04-30 11:02 | 28.04489 | -16.57124 | 292 ft | 155 kts | 69° |
| 2026-04-30 11:02 | 28.04917 | -16.55886 | 900 ft | 172 kts | 70° |
| 2026-04-30 11:02 | 28.05348 | -16.54651 | 1978 ft | 167 kts | 69° |
| 2026-04-30 11:02 | 28.05784 | -16.53400 | 2679 ft | 177 kts | 69° |
| 2026-04-30 11:03 | 28.06254 | -16.52051 | 3314 ft | 191 kts | 68° |
| 2026-04-30 11:03 | 28.06763 | -16.50601 | 3865 ft | 211 kts | 69° |
| 2026-04-30 11:03 | 28.07324 | -16.48986 | 4421 ft | 231 kts | 69° |
| 2026-04-30 11:04 | 28.08568 | -16.45287 | 5573 ft | 272 kts | 76° |
| 2026-04-30 11:04 | 28.08796 | -16.43098 | 6310 ft | 284 kts | 86° |
| 2026-04-30 11:04 | 28.08952 | -16.40870 | 7334 ft | 285 kts | 85° |
| 2026-04-30 11:04 | 28.09114 | -16.38623 | 8161 ft | 294 kts | 86° |
| 2026-04-30 11:05 | 28.09284 | -16.36278 | 9108 ft | 297 kts | 86° |
| 2026-04-30 11:05 | 28.09456 | -16.33934 | 9989 ft | 303 kts | 86° |
| 2026-04-30 11:05 | 28.09632 | -16.31523 | 10641 ft | 315 kts | 86° |
| 2026-04-30 11:05 | 28.09817 | -16.28982 | 11170 ft | 330 kts | 86° |
| 2026-04-30 11:06 | 28.10009 | -16.26335 | 11765 ft | 343 kts | 86° |
| 2026-04-30 11:06 | 28.10205 | -16.23637 | 12631 ft | 344 kts | 86° |
| 2026-04-30 11:06 | 28.10402 | -16.20911 | 13404 ft | 351 kts | 86° |
| 2026-04-30 11:06 | 28.10602 | -16.18133 | 14174 ft | 356 kts | 86° |
| 2026-04-30 11:07 | 28.10803 | -16.15319 | 14895 ft | 361 kts | 86° |
| 2026-04-30 11:07 | 28.11007 | -16.12474 | 15619 ft | 366 kts | 86° |
| 2026-04-30 11:07 | 28.11213 | -16.09579 | 16324 ft | 371 kts | 86° |
| 2026-04-30 11:07 | 28.11422 | -16.06649 | 17028 ft | 375 kts | 86° |
| 2026-04-30 11:08 | 28.11632 | -16.03693 | 17727 ft | 380 kts | 86° |
| 2026-04-30 11:08 | 28.11634 | -16.00696 | 18423 ft | 382 kts | 97° |
| 2026-04-30 11:08 | 28.11426 | -15.97669 | 18960 ft | 387 kts | 96° |
| 2026-04-30 11:08 | 28.11225 | -15.94620 | 19574 ft | 391 kts | 96° |
| 2026-04-30 11:09 | 28.11020 | -15.91528 | 20162 ft | 394 kts | 96° |
| 2026-04-30 11:09 | 28.10814 | -15.88427 | 20746 ft | 398 kts | 96° |
| 2026-04-30 11:09 | 28.10605 | -15.85286 | 21334 ft | 401 kts | 96° |
| 2026-04-30 11:09 | 28.10394 | -15.82133 | 21891 ft | 404 kts | 96° |
| 2026-04-30 11:10 | 28.10179 | -15.78936 | 22445 ft | 408 kts | 96° |
| 2026-04-30 11:10 | 28.09963 | -15.75721 | 23005 ft | 411 kts | 96° |
| 2026-04-30 11:10 | 28.09745 | -15.72497 | 23548 ft | 414 kts | 96° |
| 2026-04-30 11:10 | 28.09522 | -15.69216 | 24005 ft | 418 kts | 96° |
| 2026-04-30 11:11 | 28.09298 | -15.65920 | 24477 ft | 421 kts | 96° |
| 2026-04-30 11:11 | 28.09071 | -15.62607 | 24921 ft | 424 kts | 96° |
| 2026-04-30 11:11 | 28.08843 | -15.59271 | 25337 ft | 427 kts | 96° |
| 2026-04-30 11:11 | 28.08612 | -15.55916 | 25771 ft | 430 kts | 96° |
| 2026-04-30 11:12 | 28.08380 | -15.52562 | 26196 ft | 433 kts | 96° |
| 2026-04-30 11:12 | 28.08142 | -15.49116 | 26619 ft | 436 kts | 96° |
| 2026-04-30 11:12 | 28.08024 | -15.45725 | 27013 ft | 440 kts | 86° |
| 2026-04-30 11:12 | 28.08649 | -15.42329 | 27432 ft | 442 kts | 69° |
| 2026-04-30 11:13 | 28.10051 | -15.39226 | 27796 ft | 444 kts | 55° |
| 2026-04-30 11:13 | 28.11748 | -15.36289 | 28154 ft | 448 kts | 55° |
| 2026-04-30 11:13 | 28.13470 | -15.33340 | 28553 ft | 450 kts | 55° |
| 2026-04-30 11:13 | 28.15213 | -15.30394 | 28945 ft | 452 kts | 54° |
| 2026-04-30 11:14 | 28.16964 | -15.27454 | 29309 ft | 455 kts | 54° |
| 2026-04-30 11:14 | 28.18741 | -15.24479 | 29690 ft | 458 kts | 54° |
| 2026-04-30 11:14 | 28.20530 | -15.21485 | 30059 ft | 460 kts | 54° |
| 2026-04-30 11:14 | 28.22331 | -15.18467 | 30374 ft | 463 kts | 54° |
| 2026-04-30 11:15 | 28.24135 | -15.15442 | 30694 ft | 465 kts | 54° |
| 2026-04-30 11:15 | 28.25952 | -15.12394 | 31017 ft | 467 kts | 54° |
| 2026-04-30 11:15 | 28.27768 | -15.09347 | 31316 ft | 469 kts | 54° |
| 2026-04-30 11:15 | 28.29602 | -15.06266 | 31623 ft | 471 kts | 54° |
| 2026-04-30 11:16 | 28.31437 | -15.03180 | 31921 ft | 473 kts | 54° |
| 2026-04-30 11:16 | 28.33283 | -15.00074 | 32230 ft | 475 kts | 54° |
| 2026-04-30 11:16 | 28.35136 | -14.96955 | 32524 ft | 477 kts | 54° |
| 2026-04-30 11:16 | 28.36996 | -14.93822 | 32811 ft | 479 kts | 54° |
| 2026-04-30 11:17 | 28.38859 | -14.90679 | 33098 ft | 481 kts | 54° |
| 2026-04-30 11:17 | 28.40724 | -14.87533 | 33376 ft | 483 kts | 54° |
| 2026-04-30 11:17 | 28.42612 | -14.84346 | 33655 ft | 486 kts | 54° |
| 2026-04-30 11:17 | 28.44497 | -14.81159 | 33936 ft | 488 kts | 54° |
| 2026-04-30 11:18 | 28.46392 | -14.77955 | 34203 ft | 490 kts | 54° |
| 2026-04-30 11:18 | 28.50189 | -14.71527 | 34810 ft | 489 kts | 53° |
| 2026-04-30 11:18 | 28.52088 | -14.68309 | 35123 ft | 489 kts | 53° |
| 2026-04-30 11:19 | 28.53979 | -14.65099 | 35404 ft | 489 kts | 53° |
| 2026-04-30 11:19 | 28.55852 | -14.61920 | 35681 ft | 489 kts | 53° |
| 2026-04-30 11:19 | 28.57747 | -14.58701 | 35955 ft | 489 kts | 53° |
| 2026-04-30 11:19 | 28.59662 | -14.55446 | 36232 ft | 489 kts | 53° |
| 2026-04-30 11:20 | 28.61532 | -14.52263 | 36491 ft | 489 kts | 53° |
| 2026-04-30 11:20 | 28.63447 | -14.49003 | 36763 ft | 489 kts | 53° |
| 2026-04-30 11:20 | 28.65317 | -14.45817 | 37012 ft | 489 kts | 53° |
| 2026-04-30 11:20 | 28.67199 | -14.42607 | 37266 ft | 489 kts | 53° |
| 2026-04-30 11:21 | 28.69080 | -14.39397 | 37522 ft | 488 kts | 53° |
| 2026-04-30 11:21 | 28.70970 | -14.36168 | 37747 ft | 488 kts | 53° |
| 2026-04-30 11:21 | 28.72853 | -14.32951 | 37983 ft | 488 kts | 53° |
| 2026-04-30 11:21 | 28.74734 | -14.29733 | 38147 ft | 488 kts | 53° |
| 2026-04-30 11:22 | 28.78483 | -14.23313 | 38144 ft | 486 kts | 53° |
| 2026-04-30 11:22 | 28.82225 | -14.16895 | 38126 ft | 486 kts | 53° |
| 2026-04-30 11:23 | 28.85962 | -14.10474 | 38124 ft | 486 kts | 53° |
| 2026-04-30 11:24 | 28.90929 | -14.01928 | 38129 ft | 485 kts | 53° |
| 2026-04-30 11:24 | 28.94654 | -13.95508 | 38130 ft | 485 kts | 52° |
| 2026-04-30 11:25 | 29.00230 | -13.85876 | 38138 ft | 484 kts | 52° |
| 2026-04-30 11:26 | 29.07637 | -13.73049 | 38133 ft | 483 kts | 52° |
| 2026-04-30 11:26 | 29.11325 | -13.66646 | 38134 ft | 482 kts | 52° |
| 2026-04-30 11:27 | 29.15011 | -13.60237 | 38130 ft | 482 kts | 52° |
| 2026-04-30 11:27 | 29.18673 | -13.53862 | 38132 ft | 481 kts | 52° |
| 2026-04-30 11:28 | 29.24178 | -13.44257 | 38129 ft | 481 kts | 52° |
| 2026-04-30 11:29 | 29.27838 | -13.37859 | 38134 ft | 480 kts | 52° |
| 2026-04-30 11:29 | 29.33323 | -13.28253 | 38134 ft | 479 kts | 52° |
| 2026-04-30 11:30 | 29.38789 | -13.18658 | 38136 ft | 479 kts | 52° |
| 2026-04-30 11:31 | 29.42425 | -13.12262 | 38136 ft | 478 kts | 52° |
| 2026-04-30 11:31 | 29.46054 | -13.05871 | 38130 ft | 478 kts | 52° |
| 2026-04-30 11:32 | 29.49673 | -12.99485 | 38133 ft | 477 kts | 52° |
| 2026-04-30 11:32 | 29.53290 | -12.93093 | 38134 ft | 477 kts | 52° |
| 2026-04-30 11:33 | 29.58703 | -12.83510 | 38141 ft | 476 kts | 52° |
| 2026-04-30 11:33 | 29.62279 | -12.77169 | 38129 ft | 476 kts | 52° |
| 2026-04-30 11:34 | 29.65871 | -12.70790 | 38133 ft | 475 kts | 52° |
| 2026-04-30 11:34 | 29.69452 | -12.64421 | 38130 ft | 474 kts | 52° |
| 2026-04-30 11:35 | 29.73048 | -12.58066 | 38129 ft | 472 kts | 50° |
| 2026-04-30 11:35 | 29.76751 | -12.51836 | 38128 ft | 472 kts | 50° |
| 2026-04-30 11:36 | 29.80444 | -12.45582 | 38128 ft | 471 kts | 50° |
| 2026-04-30 11:36 | 29.84113 | -12.39353 | 38131 ft | 470 kts | 50° |
| 2026-04-30 11:37 | 29.87784 | -12.33113 | 38133 ft | 470 kts | 50° |
| 2026-04-30 11:37 | 29.91445 | -12.26880 | 38133 ft | 469 kts | 50° |
| 2026-04-30 11:38 | 29.95096 | -12.20656 | 38127 ft | 468 kts | 50° |
| 2026-04-30 11:38 | 29.98736 | -12.14441 | 38128 ft | 468 kts | 50° |
| 2026-04-30 11:39 | 30.02707 | -12.08602 | 38138 ft | 455 kts | 37° |
| 2026-04-30 11:39 | 30.07225 | -12.03504 | 38135 ft | 457 kts | 38° |
| 2026-04-30 11:40 | 30.11819 | -11.98350 | 38129 ft | 457 kts | 38° |
| 2026-04-30 11:40 | 30.16352 | -11.93270 | 38127 ft | 457 kts | 38° |
| 2026-04-30 11:41 | 30.20914 | -11.88151 | 38126 ft | 457 kts | 38° |
| 2026-04-30 11:41 | 30.25472 | -11.83031 | 38130 ft | 457 kts | 38° |
| 2026-04-30 11:42 | 30.30027 | -11.77906 | 38132 ft | 457 kts | 38° |
| 2026-04-30 11:42 | 30.34577 | -11.72780 | 38113 ft | 457 kts | 38° |
| 2026-04-30 11:43 | 30.39138 | -11.67635 | 38120 ft | 457 kts | 38° |
| 2026-04-30 11:43 | 30.43689 | -11.62494 | 38110 ft | 457 kts | 38° |
| 2026-04-30 11:44 | 30.48197 | -11.57395 | 38126 ft | 453 kts | 37° |
| 2026-04-30 11:44 | 30.52723 | -11.52267 | 38121 ft | 453 kts | 37° |
| 2026-04-30 11:45 | 30.57203 | -11.47186 | 38120 ft | 454 kts | 38° |
| 2026-04-30 11:45 | 30.61721 | -11.42055 | 38114 ft | 455 kts | 38° |
| 2026-04-30 11:46 | 30.66247 | -11.36906 | 38120 ft | 455 kts | 38° |
| 2026-04-30 11:46 | 30.70765 | -11.31760 | 38114 ft | 456 kts | 38° |
| 2026-04-30 11:47 | 30.75304 | -11.26583 | 38118 ft | 457 kts | 38° |
| 2026-04-30 11:47 | 30.79837 | -11.21406 | 38114 ft | 458 kts | 38° |
| 2026-04-30 11:48 | 30.84357 | -11.16236 | 38113 ft | 458 kts | 38° |
| 2026-04-30 11:48 | 30.88897 | -11.11036 | 38111 ft | 459 kts | 39° |
| 2026-04-30 11:49 | 30.93449 | -11.05814 | 38111 ft | 460 kts | 39° |
| 2026-04-30 11:49 | 30.98009 | -11.00578 | 38113 ft | 460 kts | 39° |
| 2026-04-30 11:50 | 31.02574 | -10.95325 | 38111 ft | 461 kts | 39° |
| 2026-04-30 11:50 | 31.07140 | -10.90067 | 38111 ft | 462 kts | 39° |
| 2026-04-30 11:51 | 31.11721 | -10.84783 | 38108 ft | 463 kts | 40° |
| 2026-04-30 11:51 | 31.16295 | -10.79498 | 38106 ft | 463 kts | 40° |
| 2026-04-30 11:52 | 31.20884 | -10.74189 | 38104 ft | 464 kts | 40° |
| 2026-04-30 11:52 | 31.25474 | -10.68872 | 38103 ft | 465 kts | 40° |
| 2026-04-30 11:53 | 31.30071 | -10.63538 | 38104 ft | 466 kts | 40° |
| 2026-04-30 11:53 | 31.34670 | -10.58195 | 38102 ft | 467 kts | 41° |
| 2026-04-30 11:54 | 31.39257 | -10.52858 | 38103 ft | 468 kts | 41° |
| 2026-04-30 11:54 | 31.43868 | -10.47485 | 38104 ft | 469 kts | 41° |
| 2026-04-30 11:55 | 31.48496 | -10.42084 | 38101 ft | 469 kts | 41° |
| 2026-04-30 11:55 | 31.53117 | -10.36683 | 38099 ft | 469 kts | 41° |
| 2026-04-30 11:56 | 31.57733 | -10.31280 | 38098 ft | 470 kts | 41° |
| 2026-04-30 11:56 | 31.62359 | -10.25858 | 38097 ft | 470 kts | 42° |
| 2026-04-30 11:57 | 31.66990 | -10.20421 | 38096 ft | 471 kts | 42° |
| 2026-04-30 11:57 | 31.71619 | -10.14978 | 38096 ft | 471 kts | 42° |
| 2026-04-30 11:58 | 31.76220 | -10.09561 | 38091 ft | 472 kts | 42° |
| 2026-04-30 11:58 | 31.80847 | -10.04105 | 38091 ft | 472 kts | 42° |
| 2026-04-30 11:59 | 31.85486 | -9.98626 | 38088 ft | 472 kts | 43° |
| 2026-04-30 11:59 | 31.90118 | -9.93147 | 38088 ft | 472 kts | 43° |
| 2026-04-30 12:00 | 31.94751 | -9.87659 | 38085 ft | 473 kts | 43° |
| 2026-04-30 12:00 | 31.99387 | -9.82159 | 38084 ft | 473 kts | 43° |
| 2026-04-30 12:01 | 32.04016 | -9.76658 | 38085 ft | 474 kts | 43° |
| 2026-04-30 12:01 | 32.08659 | -9.71134 | 38085 ft | 474 kts | 43° |
| 2026-04-30 12:02 | 32.13300 | -9.65602 | 38083 ft | 474 kts | 43° |
| 2026-04-30 12:02 | 32.17932 | -9.60072 | 38085 ft | 474 kts | 43° |
| 2026-04-30 12:03 | 32.24891 | -9.51750 | 38081 ft | 475 kts | 43° |
| 2026-04-30 12:04 | 32.29532 | -9.46189 | 38080 ft | 475 kts | 43° |
| 2026-04-30 12:04 | 32.34177 | -9.40613 | 38080 ft | 475 kts | 43° |
| 2026-04-30 12:05 | 32.38783 | -9.35078 | 38080 ft | 475 kts | 44° |
| 2026-04-30 12:05 | 32.43417 | -9.29498 | 38082 ft | 476 kts | 44° |
| 2026-04-30 12:06 | 32.48062 | -9.23898 | 38083 ft | 476 kts | 44° |
| 2026-04-30 12:06 | 32.52701 | -9.18296 | 38080 ft | 476 kts | 44° |
| 2026-04-30 12:07 | 32.57333 | -9.12693 | 38079 ft | 476 kts | 44° |
| 2026-04-30 12:07 | 32.61973 | -9.07072 | 38083 ft | 477 kts | 44° |
| 2026-04-30 12:08 | 32.66613 | -9.01442 | 38084 ft | 477 kts | 44° |
| 2026-04-30 12:08 | 32.71253 | -8.95803 | 38087 ft | 477 kts | 44° |
| 2026-04-30 12:09 | 32.75881 | -8.90169 | 38090 ft | 477 kts | 44° |
| 2026-04-30 12:09 | 32.80524 | -8.84510 | 38093 ft | 478 kts | 44° |
| 2026-04-30 12:10 | 32.85162 | -8.78846 | 38092 ft | 478 kts | 45° |
| 2026-04-30 12:10 | 32.89804 | -8.73169 | 38085 ft | 478 kts | 45° |
| 2026-04-30 12:11 | 32.94408 | -8.67531 | 38089 ft | 478 kts | 45° |
| 2026-04-30 12:11 | 32.99045 | -8.61845 | 38082 ft | 479 kts | 45° |
| 2026-04-30 12:12 | 33.03675 | -8.56158 | 38085 ft | 479 kts | 45° |
| 2026-04-30 12:12 | 33.08314 | -8.50449 | 38083 ft | 479 kts | 45° |
| 2026-04-30 12:13 | 33.12950 | -8.44736 | 38080 ft | 479 kts | 45° |
| 2026-04-30 12:13 | 33.17585 | -8.39016 | 38080 ft | 479 kts | 45° |
| 2026-04-30 12:13 | 33.20015 | -8.36323 | 38038 ft | 476 kts | 33° |
| 2026-04-30 12:14 | 33.22816 | -8.34240 | 38098 ft | 476 kts | 31° |
| 2026-04-30 12:14 | 33.28391 | -8.29973 | 38098 ft | 477 kts | 31° |
| 2026-04-30 12:15 | 33.34006 | -8.25730 | 38077 ft | 477 kts | 31° |
| 2026-04-30 12:15 | 33.39621 | -8.21493 | 38074 ft | 477 kts | 31° |
| 2026-04-30 12:16 | 33.45238 | -8.17248 | 38072 ft | 477 kts | 31° |
| 2026-04-30 12:16 | 33.50818 | -8.13024 | 38074 ft | 477 kts | 31° |
| 2026-04-30 12:17 | 33.59269 | -8.06615 | 38074 ft | 478 kts | 31° |
| 2026-04-30 12:17 | 33.64854 | -8.02370 | 38074 ft | 478 kts | 31° |
| 2026-04-30 12:18 | 33.70472 | -7.98094 | 38074 ft | 478 kts | 31° |
| 2026-04-30 12:18 | 33.76094 | -7.93810 | 38077 ft | 479 kts | 31° |
| 2026-04-30 12:19 | 33.81717 | -7.89516 | 38077 ft | 479 kts | 31° |
| 2026-04-30 12:19 | 33.87337 | -7.85219 | 38083 ft | 479 kts | 31° |
| 2026-04-30 12:20 | 33.92963 | -7.80910 | 38088 ft | 480 kts | 31° |
| 2026-04-30 12:20 | 33.97640 | -7.77323 | 38093 ft | 480 kts | 31° |
| 2026-04-30 12:21 | 34.03275 | -7.72994 | 38095 ft | 480 kts | 31° |
| 2026-04-30 12:21 | 34.08905 | -7.68663 | 38095 ft | 480 kts | 31° |
| 2026-04-30 12:22 | 34.14533 | -7.64326 | 38096 ft | 480 kts | 32° |
| 2026-04-30 12:22 | 34.20161 | -7.59982 | 38100 ft | 480 kts | 32° |
| 2026-04-30 12:23 | 34.25793 | -7.55628 | 38102 ft | 480 kts | 32° |
| 2026-04-30 12:23 | 34.31419 | -7.51272 | 38106 ft | 480 kts | 32° |
| 2026-04-30 12:24 | 34.37051 | -7.46904 | 38103 ft | 481 kts | 32° |
| 2026-04-30 12:24 | 34.42636 | -7.42565 | 38110 ft | 480 kts | 32° |
| 2026-04-30 12:25 | 34.48266 | -7.38184 | 38103 ft | 480 kts | 32° |
| 2026-04-30 12:25 | 34.53869 | -7.33818 | 38102 ft | 480 kts | 32° |
| 2026-04-30 12:26 | 34.59489 | -7.29430 | 38083 ft | 480 kts | 32° |
| 2026-04-30 12:26 | 34.65108 | -7.25037 | 38088 ft | 480 kts | 32° |
| 2026-04-30 12:27 | 34.70732 | -7.20633 | 38087 ft | 480 kts | 32° |
| 2026-04-30 12:27 | 34.76357 | -7.16220 | 38084 ft | 480 kts | 32° |
| 2026-04-30 12:28 | 34.81970 | -7.11810 | 38086 ft | 480 kts | 32° |
| 2026-04-30 12:28 | 34.87585 | -7.07391 | 38092 ft | 481 kts | 32° |
| 2026-04-30 12:29 | 34.93196 | -7.02967 | 38085 ft | 481 kts | 32° |
| 2026-04-30 12:29 | 34.98802 | -6.98540 | 38089 ft | 481 kts | 32° |
| 2026-04-30 12:30 | 35.04390 | -6.94120 | 38087 ft | 481 kts | 32° |
| 2026-04-30 12:30 | 35.10003 | -6.89673 | 38090 ft | 481 kts | 32° |
| 2026-04-30 12:31 | 35.15609 | -6.85225 | 38089 ft | 481 kts | 32° |
| 2026-04-30 12:31 | 35.21224 | -6.80763 | 38081 ft | 481 kts | 32° |
| 2026-04-30 12:32 | 35.26825 | -6.76305 | 38090 ft | 481 kts | 33° |
| 2026-04-30 12:32 | 35.32425 | -6.71840 | 38093 ft | 481 kts | 33° |
| 2026-04-30 12:33 | 35.38088 | -6.67465 | 38090 ft | 481 kts | 32° |
| 2026-04-30 12:33 | 35.43759 | -6.63097 | 38093 ft | 481 kts | 32° |
| 2026-04-30 12:34 | 35.49428 | -6.58721 | 38079 ft | 481 kts | 32° |
| 2026-04-30 12:34 | 35.55054 | -6.54369 | 38102 ft | 481 kts | 32° |
| 2026-04-30 12:35 | 35.60746 | -6.49959 | 38084 ft | 481 kts | 32° |
| 2026-04-30 12:35 | 35.66403 | -6.45570 | 38087 ft | 481 kts | 32° |
| 2026-04-30 12:36 | 35.72018 | -6.41205 | 38091 ft | 480 kts | 32° |
| 2026-04-30 12:36 | 35.77675 | -6.36800 | 38079 ft | 480 kts | 32° |
| 2026-04-30 12:37 | 35.83292 | -6.32354 | 38078 ft | 480 kts | 35° |
| 2026-04-30 12:37 | 35.88765 | -6.27647 | 37730 ft | 478 kts | 34° |
| 2026-04-30 12:38 | 35.91485 | -6.25328 | 37603 ft | 472 kts | 34° |
| 2026-04-30 12:38 | 35.94172 | -6.23039 | 37552 ft | 467 kts | 34° |
| 2026-04-30 12:38 | 35.96830 | -6.20772 | 37115 ft | 464 kts | 34° |
| 2026-04-30 12:38 | 35.99494 | -6.18498 | 36452 ft | 464 kts | 34° |
| 2026-04-30 12:39 | 36.02144 | -6.16235 | 35838 ft | 464 kts | 35° |
| 2026-04-30 12:39 | 36.04798 | -6.13967 | 35336 ft | 461 kts | 35° |
| 2026-04-30 12:39 | 36.07430 | -6.11716 | 34666 ft | 463 kts | 35° |
| 2026-04-30 12:39 | 36.10103 | -6.09428 | 33731 ft | 471 kts | 35° |
| 2026-04-30 12:40 | 36.12817 | -6.07104 | 32996 ft | 472 kts | 35° |
| 2026-04-30 12:40 | 36.15492 | -6.04811 | 32660 ft | 463 kts | 35° |
| 2026-04-30 12:40 | 36.18081 | -6.02588 | 32362 ft | 455 kts | 34° |
| 2026-04-30 12:40 | 36.20702 | -6.00338 | 31873 ft | 451 kts | 34° |
| 2026-04-30 12:41 | 36.23218 | -5.98020 | 31243 ft | 451 kts | 44° |
| 2026-04-30 12:41 | 36.25172 | -5.95027 | 30650 ft | 448 kts | 62° |
| 2026-04-30 12:41 | 36.26693 | -5.91682 | 30250 ft | 442 kts | 60° |
| 2026-04-30 12:41 | 36.28249 | -5.88486 | 29815 ft | 437 kts | 60° |
| 2026-04-30 12:42 | 36.29818 | -5.85222 | 29264 ft | 434 kts | 60° |
| 2026-04-30 12:42 | 36.31346 | -5.82023 | 28760 ft | 430 kts | 60° |
| 2026-04-30 12:42 | 36.32833 | -5.78902 | 28168 ft | 422 kts | 61° |
| 2026-04-30 12:42 | 36.34309 | -5.75801 | 27696 ft | 411 kts | 60° |
| 2026-04-30 12:43 | 36.35741 | -5.72787 | 27253 ft | 401 kts | 61° |
| 2026-04-30 12:43 | 36.37140 | -5.69841 | 26831 ft | 396 kts | 60° |
| 2026-04-30 12:43 | 36.38536 | -5.66901 | 26386 ft | 396 kts | 60° |
| 2026-04-30 12:43 | 36.39938 | -5.63944 | 25961 ft | 396 kts | 60° |
| 2026-04-30 12:44 | 36.41328 | -5.61008 | 25527 ft | 396 kts | 60° |
| 2026-04-30 12:44 | 36.42727 | -5.58054 | 25102 ft | 397 kts | 60° |
| 2026-04-30 12:44 | 36.44124 | -5.55099 | 24662 ft | 397 kts | 60° |
| 2026-04-30 12:44 | 36.45522 | -5.52140 | 24233 ft | 397 kts | 60° |
| 2026-04-30 12:45 | 36.46924 | -5.49168 | 23794 ft | 398 kts | 60° |
| 2026-04-30 12:45 | 36.48322 | -5.46205 | 23298 ft | 399 kts | 60° |
| 2026-04-30 12:45 | 36.49611 | -5.43165 | 22853 ft | 396 kts | 72° |
| 2026-04-30 12:45 | 36.50089 | -5.39864 | 22565 ft | 383 kts | 94° |
| 2026-04-30 12:46 | 36.49765 | -5.36631 | 22411 ft | 372 kts | 101° |
| 2026-04-30 12:46 | 36.49393 | -5.33470 | 22120 ft | 368 kts | 101° |
| 2026-04-30 12:46 | 36.49014 | -5.30355 | 21809 ft | 365 kts | 101° |
| 2026-04-30 12:46 | 36.48624 | -5.27239 | 21521 ft | 362 kts | 102° |
| 2026-04-30 12:47 | 36.48232 | -5.24172 | 21234 ft | 359 kts | 102° |
| 2026-04-30 12:47 | 36.47842 | -5.21134 | 20950 ft | 356 kts | 102° |
| 2026-04-30 12:47 | 36.47450 | -5.18095 | 20670 ft | 354 kts | 102° |
| 2026-04-30 12:47 | 36.47061 | -5.15094 | 20399 ft | 352 kts | 102° |
| 2026-04-30 12:48 | 36.46674 | -5.12101 | 20113 ft | 350 kts | 102° |
| 2026-04-30 12:48 | 36.46287 | -5.09129 | 19841 ft | 348 kts | 101° |
| 2026-04-30 12:48 | 36.45901 | -5.06165 | 19565 ft | 346 kts | 101° |
| 2026-04-30 12:48 | 36.45517 | -5.03218 | 19291 ft | 345 kts | 101° |
| 2026-04-30 12:49 | 36.45132 | -5.00277 | 19016 ft | 343 kts | 101° |
| 2026-04-30 12:49 | 36.44751 | -4.97371 | 18748 ft | 340 kts | 101° |
| 2026-04-30 12:49 | 36.44371 | -4.94479 | 18482 ft | 338 kts | 101° |
| 2026-04-30 12:49 | 36.43993 | -4.91608 | 18185 ft | 336 kts | 101° |
| 2026-04-30 12:50 | 36.43617 | -4.88756 | 17900 ft | 334 kts | 101° |
| 2026-04-30 12:50 | 36.43242 | -4.85921 | 17630 ft | 331 kts | 102° |
| 2026-04-30 12:50 | 36.42870 | -4.83110 | 17373 ft | 328 kts | 102° |
| 2026-04-30 12:50 | 36.42751 | -4.80293 | 17058 ft | 331 kts | 84° |
| 2026-04-30 12:51 | 36.43476 | -4.77587 | 16776 ft | 332 kts | 61° |
| 2026-04-30 12:51 | 36.44938 | -4.75383 | 16545 ft | 332 kts | 43° |
| 2026-04-30 12:51 | 36.46633 | -4.73450 | 16290 ft | 330 kts | 44° |
| 2026-04-30 12:51 | 36.48323 | -4.71517 | 16013 ft | 329 kts | 43° |
| 2026-04-30 12:52 | 36.50008 | -4.69604 | 15759 ft | 329 kts | 43° |
| 2026-04-30 12:52 | 36.51871 | -4.67950 | 15453 ft | 331 kts | 24° |
| 2026-04-30 12:52 | 36.54068 | -4.67260 | 15171 ft | 331 kts | 2° |
| 2026-04-30 12:52 | 36.56355 | -4.67176 | 14915 ft | 330 kts | 0° |
| 2026-04-30 12:53 | 36.58648 | -4.67102 | 14646 ft | 330 kts | 0° |
| 2026-04-30 12:53 | 36.60971 | -4.67044 | 14388 ft | 330 kts | 359° |
| 2026-04-30 12:53 | 36.63235 | -4.67390 | 14060 ft | 328 kts | 338° |
| 2026-04-30 12:53 | 36.65150 | -4.68785 | 13790 ft | 320 kts | 315° |
| 2026-04-30 12:54 | 36.66784 | -4.70631 | 13559 ft | 318 kts | 315° |
| 2026-04-30 12:54 | 36.68432 | -4.72466 | 13314 ft | 317 kts | 315° |
| 2026-04-30 12:54 | 36.70067 | -4.74303 | 13064 ft | 316 kts | 314° |
| 2026-04-30 12:54 | 36.71677 | -4.76122 | 12830 ft | 307 kts | 314° |
| 2026-04-30 12:55 | 36.73228 | -4.77884 | 12596 ft | 299 kts | 314° |
| 2026-04-30 12:55 | 36.74772 | -4.79640 | 12350 ft | 298 kts | 314° |
| 2026-04-30 12:55 | 36.76286 | -4.81359 | 12105 ft | 292 kts | 314° |
| 2026-04-30 12:55 | 36.77777 | -4.83053 | 11882 ft | 286 kts | 314° |
| 2026-04-30 12:56 | 36.79226 | -4.84699 | 11661 ft | 280 kts | 314° |
| 2026-04-30 12:56 | 36.80820 | -4.86059 | 11364 ft | 280 kts | 337° |
| 2026-04-30 12:56 | 36.82674 | -4.86726 | 11191 ft | 274 kts | 342° |
| 2026-04-30 12:56 | 36.84519 | -4.87361 | 10999 ft | 275 kts | 342° |
| 2026-04-30 12:57 | 36.86366 | -4.87997 | 10762 ft | 275 kts | 342° |
| 2026-04-30 12:57 | 36.88202 | -4.88632 | 10554 ft | 275 kts | 342° |
| 2026-04-30 12:57 | 36.90042 | -4.89270 | 10332 ft | 274 kts | 341° |
| 2026-04-30 12:57 | 36.91870 | -4.89904 | 10112 ft | 272 kts | 341° |
| 2026-04-30 12:58 | 36.93721 | -4.90386 | 9904 ft | 271 kts | 355° |
| 2026-04-30 12:58 | 36.95601 | -4.90411 | 9793 ft | 271 kts | 358° |
| 2026-04-30 12:58 | 36.97494 | -4.90416 | 9696 ft | 272 kts | 358° |
| 2026-04-30 12:58 | 36.99380 | -4.90427 | 9534 ft | 271 kts | 358° |
| 2026-04-30 12:59 | 37.01269 | -4.90446 | 9370 ft | 270 kts | 358° |
| 2026-04-30 12:59 | 37.03138 | -4.90466 | 9209 ft | 269 kts | 358° |
| 2026-04-30 12:59 | 37.05011 | -4.90488 | 8908 ft | 271 kts | 358° |
| 2026-04-30 12:59 | 37.06877 | -4.90510 | 8512 ft | 273 kts | 358° |
| 2026-04-30 13:00 | 37.08783 | -4.90534 | 8123 ft | 274 kts | 358° |
| 2026-04-30 13:00 | 37.10683 | -4.90557 | 7838 ft | 269 kts | 358° |
| 2026-04-30 13:00 | 37.12506 | -4.90579 | 7593 ft | 259 kts | 358° |
| 2026-04-30 13:00 | 37.14297 | -4.90602 | 7340 ft | 255 kts | 358° |
| 2026-04-30 13:01 | 37.16034 | -4.90278 | 7074 ft | 252 kts | 26° |
| 2026-04-30 13:01 | 37.17277 | -4.88881 | 6982 ft | 235 kts | 62° |
| 2026-04-30 13:01 | 37.17818 | -4.86993 | 7035 ft | 231 kts | 84° |
| 2026-04-30 13:01 | 37.17767 | -4.84998 | 6996 ft | 229 kts | 108° |
| 2026-04-30 13:02 | 37.17066 | -4.83243 | 6979 ft | 224 kts | 133° |
| 2026-04-30 13:02 | 37.15862 | -4.82039 | 7014 ft | 223 kts | 152° |
| 2026-04-30 13:02 | 37.14515 | -4.81053 | 7001 ft | 224 kts | 150° |
| 2026-04-30 13:02 | 37.13205 | -4.80007 | 6981 ft | 225 kts | 140° |
| 2026-04-30 13:03 | 37.12465 | -4.78324 | 6936 ft | 226 kts | 96° |
| 2026-04-30 13:03 | 37.12858 | -4.76445 | 6943 ft | 232 kts | 53° |
| 2026-04-30 13:03 | 37.14190 | -4.75360 | 6958 ft | 235 kts | 9° |
| 2026-04-30 13:03 | 37.15772 | -4.75675 | 6967 ft | 232 kts | 325° |
| 2026-04-30 13:04 | 37.16731 | -4.77206 | 6967 ft | 225 kts | 280° |
| 2026-04-30 13:04 | 37.16566 | -4.79068 | 6962 ft | 218 kts | 236° |
| 2026-04-30 13:04 | 37.15424 | -4.80180 | 6966 ft | 215 kts | 192° |
| 2026-04-30 13:04 | 37.13921 | -4.80289 | 7008 ft | 220 kts | 182° |
| 2026-04-30 13:05 | 37.12378 | -4.80328 | 6991 ft | 221 kts | 180° |
| 2026-04-30 13:05 | 37.10841 | -4.80292 | 6995 ft | 222 kts | 178° |
| 2026-04-30 13:05 | 37.09298 | -4.80195 | 6993 ft | 222 kts | 176° |
| 2026-04-30 13:06 | 37.06224 | -4.79880 | 6987 ft | 222 kts | 175° |
| 2026-04-30 13:06 | 37.04678 | -4.79690 | 6906 ft | 223 kts | 174° |
| 2026-04-30 13:06 | 37.03139 | -4.79491 | 6716 ft | 223 kts | 174° |
| 2026-04-30 13:06 | 37.01598 | -4.79283 | 6515 ft | 221 kts | 174° |
| 2026-04-30 13:07 | 37.00075 | -4.79075 | 6299 ft | 220 kts | 174° |
| 2026-04-30 13:07 | 36.98554 | -4.78863 | 6115 ft | 221 kts | 174° |
| 2026-04-30 13:07 | 36.97024 | -4.78645 | 5934 ft | 220 kts | 173° |
| 2026-04-30 13:07 | 36.95508 | -4.78432 | 5720 ft | 219 kts | 174° |
| 2026-04-30 13:08 | 36.93995 | -4.78215 | 5566 ft | 218 kts | 174° |
| 2026-04-30 13:08 | 36.92494 | -4.78002 | 5357 ft | 217 kts | 174° |
| 2026-04-30 13:08 | 36.90987 | -4.77786 | 5187 ft | 218 kts | 174° |
| 2026-04-30 13:08 | 36.89496 | -4.77573 | 5014 ft | 215 kts | 174° |
| 2026-04-30 13:09 | 36.88022 | -4.77353 | 4834 ft | 213 kts | 171° |
| 2026-04-30 13:09 | 36.86703 | -4.76564 | 4558 ft | 211 kts | 139° |
| 2026-04-30 13:09 | 36.85719 | -4.75238 | 4369 ft | 204 kts | 135° |
| 2026-04-30 13:09 | 36.84768 | -4.73980 | 4223 ft | 196 kts | 135° |
| 2026-04-30 13:10 | 36.83816 | -4.72743 | 4278 ft | 198 kts | 136° |
| 2026-04-30 13:10 | 36.82892 | -4.71534 | 4232 ft | 185 kts | 135° |
| 2026-04-30 13:10 | 36.82052 | -4.70381 | 4179 ft | 179 kts | 134° |
| 2026-04-30 13:10 | 36.81225 | -4.69233 | 3950 ft | 175 kts | 133° |
| 2026-04-30 13:11 | 36.80422 | -4.68103 | 3726 ft | 171 kts | 133° |
| 2026-04-30 13:11 | 36.79655 | -4.67018 | 3499 ft | 164 kts | 133° |
| 2026-04-30 13:11 | 36.78904 | -4.65965 | 3271 ft | 161 kts | 134° |
| 2026-04-30 13:11 | 36.78164 | -4.64935 | 3074 ft | 162 kts | 133° |
| 2026-04-30 13:12 | 36.77428 | -4.63886 | 2863 ft | 158 kts | 132° |
| 2026-04-30 13:12 | 36.76712 | -4.62876 | 2636 ft | 152 kts | 131° |
| 2026-04-30 13:12 | 36.76013 | -4.61892 | 2444 ft | 152 kts | 134° |
| 2026-04-30 13:13 | 36.74878 | -4.60298 | 2072 ft | 139 kts | 132° |
| 2026-04-30 13:13 | 36.74040 | -4.59114 | 1819 ft | 136 kts | 133° |
| 2026-04-30 13:13 | 36.72786 | -4.57354 | 1446 ft | 135 kts | 133° |
| 2026-04-30 13:14 | 36.72365 | -4.56762 | 1316 ft | 135 kts | 133° |
| 2026-04-30 13:14 | 36.71751 | -4.55891 | 1113 ft | 133 kts | 133° |
| 2026-04-30 13:14 | 36.70529 | -4.54180 | 752 ft | 130 kts | 133° |
| 2026-04-30 13:15 | 36.69931 | -4.53336 | 569 ft | 129 kts | 133° |
| 2026-04-30 13:15 | 36.68755 | -4.51680 | 204 ft | 127 kts | 133° |
| 2026-04-30 13:15 | 36.68177 | -4.50871 | 66 ft | 118 kts | 131° |
| 2026-04-30 13:16 | 36.67815 | -4.50359 | 57 ft | 28 kts | 131° |
| 2026-04-30 13:16 | 36.67759 | -4.50252 | 55 ft | 16 kts | 113° |
| 2026-04-30 13:16 | 36.67733 | -4.50159 | 54 ft | 10 kts | 105° |
| 2026-04-30 13:17 | 36.67704 | -4.49954 | 47 ft | 9 kts | 84° |
| 2026-04-30 13:17 | 36.67735 | -4.49876 | 45 ft | 7 kts | 63° |
| 2026-04-30 13:17 | 36.67687 | -4.49750 | 45 ft | 11 kts | 133° |
| 2026-04-30 13:18 | 36.67660 | -4.49678 | 44 ft | 7 kts | 82° |
| 2026-04-30 13:18 | 36.67729 | -4.49586 | 44 ft | 9 kts | 41° |
| 2026-04-30 13:18 | 36.67739 | -4.49575 | 44 ft | 0 kts | 41° |